Time;durP1;ratioP1;P1;durP2;ratioP2;P2;SDS_P1;SDS_P2;PMS_P1;PMS_P2;Temp;Humidity;BMP_temperature;BMP_pressure;BME280_temperature;BME280_humidity;BME280_pressure;Samples;Min_cycle;Max_cycle;Signal;HPM_P1;HPM_P2
2021/03/28 00:01:10;;;;;;;4.63;3.27;;;7.00;99.90;;;;;;5013114;28;20444;-46
2021/03/28 00:03:42;;;;;;;4.33;3.50;;;7.00;99.90;;;;;;5011712;28;20445;-46
2021/03/28 00:06:21;;;;;;;3.50;3.17;;;6.80;99.90;;;;;;5019435;28;20478;-46
2021/03/28 00:09:02;;;;;;;6.50;3.57;;;6.70;99.90;;;;;;5011405;28;20799;-46
2021/03/28 00:11:30;;;;;;;5.37;3.50;;;6.80;99.90;;;;;;5011506;28;20446;-46
2021/03/28 00:13:58;;;;;;;4.90;3.60;;;6.80;99.90;;;;;;5014409;28;20490;-46
2021/03/28 00:16:28;;;;;;;4.37;2.77;;;6.70;99.90;;;;;;5027360;28;20539;-46
2021/03/28 00:19:05;;;;;;;5.93;2.80;;;6.70;99.90;;;;;;5024117;28;20455;-46
2021/03/28 00:21:35;;;;;;;8.33;2.80;;;6.70;99.90;;;;;;5022226;28;20458;-46
2021/03/28 00:24:17;;;;;;;4.97;2.67;;;6.70;99.90;;;;;;5011219;28;20438;-46
2021/03/28 00:26:49;;;;;;;6.40;2.80;;;6.50;99.90;;;;;;5011358;28;20569;-46
2021/03/28 00:29:23;;;;;;;5.90;2.90;;;6.40;99.90;;;;;;5024864;28;20506;-46
2021/03/28 00:31:58;;;;;;;10.50;2.90;;;6.40;99.90;;;;;;5030833;28;20495;-46
2021/03/28 00:34:30;;;;;;;4.50;2.80;;;6.40;99.90;;;;;;5029019;28;20452;-46
2021/03/28 00:36:59;;;;;;;5.00;3.00;;;6.40;99.90;;;;;;5029674;28;20477;-46
2021/03/28 00:39:44;;;;;;;5.10;3.20;;;6.30;99.90;;;;;;5030147;28;20892;-46
2021/03/28 00:42:21;;;;;;;6.50;3.00;;;6.30;99.90;;;;;;5030851;28;20445;-46
2021/03/28 00:44:51;;;;;;;4.67;2.67;;;6.20;99.90;;;;;;5028721;28;21032;-46
2021/03/28 00:47:24;;;;;;;4.30;2.70;;;6.10;99.90;;;;;;5012058;28;20454;-46
2021/03/28 00:50:07;;;;;;;3.93;2.93;;;6.20;99.90;;;;;;5025499;28;20452;-46
2021/03/28 00:52:37;;;;;;;5.40;3.00;;;6.20;99.90;;;;;;5030536;28;20476;-46
2021/03/28 00:55:17;;;;;;;5.53;3.10;;;6.20;99.90;;;;;;5028680;28;20467;-46
2021/03/28 00:57:45;;;;;;;4.60;3.10;;;6.10;99.90;;;;;;5011026;28;20544;-46
2021/03/28 01:00:47;;;;;;;5.03;3.23;;;6.00;99.90;;;;;;5011088;28;20453;-46
2021/03/28 01:03:32;;;;;;;9.80;3.50;;;5.90;99.90;;;;;;5010758;28;20449;-46
2021/03/28 01:06:08;;;;;;;6.83;3.00;;;5.90;99.90;;;;;;5010517;28;20518;-47
2021/03/28 01:08:42;;;;;;;5.30;2.90;;;5.60;99.90;;;;;;5010874;28;20876;-46
2021/03/28 01:11:19;;;;;;;4.30;3.23;;;5.40;99.90;;;;;;5010682;28;20453;-46
2021/03/28 01:14:31;;;;;;;4.60;3.53;;;5.30;99.90;;;;;;5010659;28;20486;-46
2021/03/28 01:17:25;;;;;;;5.90;3.33;;;5.30;99.90;;;;;;5017895;28;21062;-46
2021/03/28 01:20:21;;;;;;;6.70;3.40;;;5.30;99.90;;;;;;5028319;28;20466;-46
2021/03/28 01:23:24;;;;;;;6.00;3.20;;;5.30;99.90;;;;;;5030551;28;20441;-46
2021/03/28 01:26:23;;;;;;;5.60;3.57;;;5.30;99.90;;;;;;5011526;28;20473;-46
2021/03/28 01:28:54;;;;;;;4.93;3.40;;;5.30;99.90;;;;;;5010640;28;20447;-46
2021/03/28 01:31:34;;;;;;;7.10;4.23;;;5.20;99.90;;;;;;5018938;28;20816;-46
2021/03/28 01:34:14;;;;;;;5.97;3.60;;;5.20;99.90;;;;;;5030297;28;20484;-46
2021/03/28 01:36:45;;;;;;;7.87;3.93;;;5.30;99.90;;;;;;5029862;28;21054;-46
2021/03/28 01:39:17;;;;;;;4.00;3.23;;;5.30;99.90;;;;;;5029751;28;20439;-46
2021/03/28 01:41:50;;;;;;;6.13;3.73;;;5.20;99.90;;;;;;5022972;28;20800;-46
2021/03/28 01:44:24;;;;;;;5.17;3.57;;;5.20;99.90;;;;;;5029520;28;20523;-46
2021/03/28 01:47:05;;;;;;;4.90;3.27;;;5.30;99.90;;;;;;5024220;28;20465;-46
2021/03/28 01:49:49;;;;;;;5.33;3.73;;;5.30;99.90;;;;;;5011234;28;20461;-46
2021/03/28 01:52:26;;;;;;;4.73;2.97;;;5.20;99.90;;;;;;5010373;28;20990;-47
2021/03/28 01:55:06;;;;;;;4.53;2.93;;;5.20;99.90;;;;;;5010032;28;20954;-46
2021/03/28 01:57:49;;;;;;;8.57;3.23;;;4.90;99.90;;;;;;5011512;28;20456;-46
2021/03/28 02:00:31;;;;;;;6.77;3.00;;;4.90;99.90;;;;;;5023536;28;20459;-46
2021/03/28 02:03:02;;;;;;;5.33;2.17;;;5.00;99.90;;;;;;5031667;28;20500;-46
2021/03/28 02:05:49;;;;;;;3.10;1.97;;;5.00;99.90;;;;;;5033058;28;20989;-46
2021/03/28 02:08:24;;;;;;;4.80;2.30;;;5.00;99.90;;;;;;5032635;28;20456;-46
2021/03/28 02:11:25;;;;;;;3.90;2.60;;;4.70;99.90;;;;;;5033679;28;20491;-46
2021/03/28 02:14:03;;;;;;;6.47;2.23;;;4.60;99.90;;;;;;5003174;28;20550;-49
2021/03/28 02:16:35;;;;;;;6.20;2.63;;;4.50;99.90;;;;;;5013220;28;20469;-46
2021/03/28 02:19:11;;;;;;;2.97;1.90;;;4.60;99.90;;;;;;5014923;28;20451;-46
2021/03/28 02:21:56;;;;;;;3.70;1.93;;;4.70;99.90;;;;;;5013770;28;20544;-47
2021/03/28 02:24:29;;;;;;;2.33;2.13;;;4.90;99.90;;;;;;5013515;28;20453;-47
2021/03/28 02:27:08;;;;;;;5.73;2.40;;;4.70;99.90;;;;;;5012998;28;20470;-46
2021/03/28 02:29:47;;;;;;;4.83;2.77;;;4.80;99.90;;;;;;5031402;28;20456;-46
2021/03/28 02:32:28;;;;;;;4.63;2.90;;;4.90;99.90;;;;;;5025058;28;20492;-46
2021/03/28 02:35:04;;;;;;;4.23;2.80;;;4.80;99.90;;;;;;5024936;28;20484;-47
2021/03/28 02:37:49;;;;;;;3.33;2.83;;;4.80;99.90;;;;;;5032300;28;20460;-47
2021/03/28 02:40:20;;;;;;;6.23;2.80;;;4.70;99.90;;;;;;5033208;28;20455;-46
2021/03/28 02:43:01;;;;;;;3.43;2.70;;;4.50;99.90;;;;;;5030474;28;20441;-46
2021/03/28 02:45:31;;;;;;;6.87;3.10;;;4.40;99.90;;;;;;5012447;28;20531;-46
2021/03/28 02:48:25;;;;;;;5.20;3.00;;;4.40;99.90;;;;;;5012934;28;20454;-46
2021/03/28 02:51:17;;;;;;;5.00;2.60;;;4.40;99.90;;;;;;5009797;28;20461;-46
2021/03/28 02:54:06;;;;;;;6.67;3.10;;;4.40;99.90;;;;;;5012802;28;20481;-46
2021/03/28 03:07:06;;;;;;;7.20;3.80;;;4.50;99.90;;;;;;5031092;28;20511;-46
2021/03/28 03:09:48;;;;;;;5.53;3.80;;;4.60;99.90;;;;;;5026550;28;20454;-46
2021/03/28 03:12:28;;;;;;;6.70;3.53;;;4.30;99.90;;;;;;5012699;28;20515;-46
2021/03/28 03:15:06;;;;;;;7.27;3.70;;;4.30;99.90;;;;;;5018308;28;20475;-47
2021/03/28 03:18:04;;;;;;;5.30;3.87;;;4.40;99.90;;;;;;5029451;28;20499;-49
2021/03/28 03:21:03;;;;;;;4.83;3.60;;;4.50;99.90;;;;;;5012869;28;20449;-46
2021/03/28 03:24:02;;;;;;;4.40;3.60;;;4.40;99.90;;;;;;5012306;28;20476;-46
2021/03/28 03:27:19;;;;;;;5.10;3.90;;;4.10;99.90;;;;;;5013117;28;20516;-46
2021/03/28 03:30:09;;;;;;;5.13;4.00;;;4.20;99.90;;;;;;4972083;28;20688;-46
2021/03/28 03:33:11;;;;;;;4.80;3.60;;;4.30;99.90;;;;;;5012969;28;20488;-46
2021/03/28 03:35:59;;;;;;;4.27;3.10;;;4.30;99.90;;;;;;5011792;28;20527;-46
2021/03/28 03:38:56;;;;;;;6.50;3.63;;;4.30;99.90;;;;;;5006496;28;20468;-46
2021/03/28 03:41:43;;;;;;;5.87;3.50;;;4.30;99.90;;;;;;5011998;28;20460;-46
2021/03/28 03:44:15;;;;;;;3.87;3.47;;;3.90;99.90;;;;;;5013470;28;21083;-46
2021/03/28 03:46:51;;;;;;;5.33;3.77;;;4.00;99.90;;;;;;5011944;28;20995;-46
2021/03/28 03:49:39;;;;;;;5.60;4.03;;;4.10;99.90;;;;;;5017525;28;20449;-46
2021/03/28 03:52:19;;;;;;;6.10;4.10;;;4.10;99.90;;;;;;5029245;28;20475;-46
2021/03/28 03:54:58;;;;;;;7.70;4.33;;;4.10;99.90;;;;;;5031363;28;21031;-47
2021/03/28 03:57:33;;;;;;;8.23;4.40;;;4.10;99.90;;;;;;5027634;28;20458;-46
2021/03/28 04:00:12;;;;;;;6.73;4.27;;;4.10;99.90;;;;;;5016289;28;20457;-46
2021/03/28 04:02:45;;;;;;;6.93;4.07;;;4.00;99.90;;;;;;5011460;28;20452;-46
2021/03/28 04:05:44;;;;;;;5.10;3.27;;;3.60;99.90;;;;;;5011412;28;20485;-46
2021/03/28 04:08:52;;;;;;;4.57;3.53;;;3.40;99.90;;;;;;4996244;28;20469;-46
2021/03/28 04:11:49;;;;;;;4.73;3.57;;;3.70;99.90;;;;;;5003485;28;20981;-46
2021/03/28 04:14:27;;;;;;;6.63;4.10;;;3.60;99.90;;;;;;5011461;28;20489;-46
2021/03/28 04:17:09;;;;;;;6.30;4.30;;;3.40;99.90;;;;;;5022514;28;20474;-46
2021/03/28 04:20:08;;;;;;;5.50;4.80;;;3.60;99.90;;;;;;5015592;28;20456;-46
2021/03/28 04:22:56;;;;;;;5.87;4.33;;;3.60;99.90;;;;;;5028329;28;20820;-46
2021/03/28 04:25:34;;;;;;;5.97;4.40;;;3.60;99.90;;;;;;5037812;28;20475;-46
2021/03/28 04:28:22;;;;;;;5.60;3.80;;;3.60;99.90;;;;;;5026182;28;20456;-46
2021/03/28 04:31:21;;;;;;;4.30;3.33;;;3.60;99.90;;;;;;5028857;28;20444;-46
2021/03/28 04:33:54;;;;;;;5.43;3.40;;;3.70;99.90;;;;;;5030873;28;20538;-47
2021/03/28 04:36:29;;;;;;;6.63;4.00;;;3.70;99.90;;;;;;5030927;28;20518;-46
2021/03/28 04:39:13;;;;;;;4.47;3.33;;;3.80;99.90;;;;;;5030154;28;20831;-46
2021/03/28 04:42:22;;;;;;;5.30;3.90;;;3.70;99.90;;;;;;5029662;28;20480;-46
2021/03/28 04:45:27;;;;;;;5.63;3.63;;;3.80;99.90;;;;;;5026317;28;20448;-46
2021/03/28 04:48:38;;;;;;;7.47;4.10;;;3.70;99.90;;;;;;5027927;28;20441;-46
2021/03/28 04:52:04;;;;;;;6.73;3.90;;;3.70;99.90;;;;;;5028299;28;20514;-46
2021/03/28 04:55:16;;;;;;;4.80;3.30;;;3.50;99.90;;;;;;5030849;28;20464;-46
2021/03/28 04:58:04;;;;;;;9.50;4.37;;;3.60;99.90;;;;;;4986107;28;20512;-46
2021/03/28 05:01:00;;;;;;;8.60;3.37;;;3.60;99.90;;;;;;5026373;28;20449;-46
2021/03/28 05:04:12;;;;;;;6.40;3.43;;;3.60;99.90;;;;;;5031148;28;20433;-46
2021/03/28 05:07:00;;;;;;;6.60;3.77;;;3.50;99.90;;;;;;5090251;22;20501;-47
2021/03/28 05:10:05;;;;;;;5.83;3.13;;;3.50;99.90;;;;;;5070264;28;20830;-48
2021/03/28 05:13:03;;;;;;;6.73;3.27;;;3.60;99.90;;;;;;5051814;28;20478;-48
2021/03/28 05:16:09;;;;;;;4.87;3.37;;;3.60;99.90;;;;;;5065574;28;20478;-48
2021/03/28 05:19:05;;;;;;;5.03;3.23;;;3.60;99.90;;;;;;5050434;28;20794;-48
2021/03/28 05:21:51;;;;;;;4.83;3.63;;;3.60;99.90;;;;;;5050224;28;20439;-48
2021/03/28 05:24:54;;;;;;;4.87;3.70;;;3.60;99.90;;;;;;5053294;28;20810;-47
2021/03/28 05:28:03;;;;;;;7.67;4.20;;;3.40;99.90;;;;;;5058932;28;20853;-47
2021/03/28 05:31:14;;;;;;;5.07;3.80;;;3.40;99.90;;;;;;5049376;28;20445;-47
2021/03/28 05:34:14;;;;;;;6.20;3.77;;;3.60;99.90;;;;;;5052406;28;20471;-47
2021/03/28 05:37:04;;;;;;;7.30;3.90;;;3.70;99.90;;;;;;5052990;28;20467;-47
2021/03/28 05:39:52;;;;;;;6.67;5.03;;;3.80;99.90;;;;;;5053110;28;20466;-47
2021/03/28 05:42:45;;;;;;;9.03;3.70;;;4.00;99.90;;;;;;5072272;28;20469;-47
2021/03/28 05:45:53;;;;;;;7.30;4.37;;;3.90;99.90;;;;;;5071615;28;20450;-47
2021/03/28 05:48:56;;;;;;;5.50;4.10;;;4.00;99.90;;;;;;5053625;28;20459;-48
2021/03/28 05:51:49;;;;;;;5.30;4.33;;;4.10;99.90;;;;;;5060635;28;20509;-47
2021/03/28 05:54:53;;;;;;;6.10;4.67;;;4.30;99.90;;;;;;5057311;28;20528;-47
2021/03/28 05:57:52;;;;;;;11.33;4.70;;;4.40;99.90;;;;;;5071566;28;20466;-48
2021/03/28 06:01:13;;;;;;;6.90;4.60;;;4.50;99.90;;;;;;5071924;28;20441;-48
2021/03/28 06:04:13;;;;;;;10.47;4.30;;;4.70;99.90;;;;;;5059653;28;20446;-48
2021/03/28 06:07:23;;;;;;;10.03;3.93;;;5.00;99.90;;;;;;5022059;28;20511;-47
2021/03/28 06:10:29;;;;;;;5.20;3.80;;;6.00;99.90;;;;;;5052090;28;20450;-47
2021/03/28 06:13:28;;;;;;;7.50;3.87;;;7.10;99.90;;;;;;5032160;28;21010;-47
2021/03/28 06:16:24;;;;;;;5.47;4.50;;;8.20;99.90;;;;;;5045078;28;20467;-48
2021/03/28 06:19:30;;;;;;;8.37;5.00;;;9.00;99.90;;;;;;5051451;28;20452;-48
2021/03/28 06:22:45;;;;;;;8.33;5.63;;;9.40;99.90;;;;;;5007511;28;20444;-49
2021/03/28 06:25:49;;;;;;;6.30;4.73;;;10.10;99.90;;;;;;5015761;28;20501;-49
2021/03/28 06:28:45;;;;;;;8.60;5.03;;;11.10;99.90;;;;;;5052817;28;20509;-49
2021/03/28 06:32:07;;;;;;;7.97;4.63;;;11.50;99.90;;;;;;5052161;28;20462;-49
2021/03/28 06:35:21;;;;;;;5.90;4.80;;;12.20;99.90;;;;;;5050502;28;21019;-48
2021/03/28 06:38:43;;;;;;;7.17;5.03;;;12.60;99.90;;;;;;5046841;28;20825;-49
2021/03/28 06:41:45;;;;;;;8.40;4.80;;;13.10;99.90;;;;;;5051730;28;20459;-49
2021/03/28 06:44:56;;;;;;;5.30;4.10;;;13.00;99.90;;;;;;5017244;28;20451;-48
2021/03/28 06:47:55;;;;;;;3.60;3.30;;;13.60;99.90;;;;;;5050925;28;20509;-49
2021/03/28 06:50:59;;;;;;;5.20;4.03;;;13.60;99.90;;;;;;5052034;28;20451;-49
2021/03/28 06:54:04;;;;;;;5.30;3.70;;;13.60;99.90;;;;;;5013810;28;20483;-49
2021/03/28 06:57:18;;;;;;;7.03;4.60;;;13.70;99.90;;;;;;5050008;28;20468;-49
2021/03/28 07:00:13;;;;;;;7.70;4.57;;;13.30;99.50;;;;;;5047407;28;20501;-49
2021/03/28 07:03:23;;;;;;;6.10;3.80;;;13.30;99.70;;;;;;5051789;28;20444;-48
2021/03/28 07:05:59;;;;;;;4.07;3.20;;;13.30;99.40;;;;;;5049482;28;20949;-48
2021/03/28 07:09:01;;;;;;;3.70;3.23;;;13.10;98.80;;;;;;5051206;28;20894;-48
2021/03/28 07:11:59;;;;;;;3.50;2.70;;;11.90;99.90;;;;;;5054382;28;20474;-49
2021/03/28 07:15:15;;;;;;;3.70;3.37;;;11.40;99.90;;;;;;5040887;28;20517;-49
2021/03/28 07:18:23;;;;;;;4.63;3.37;;;11.50;99.90;;;;;;5049978;28;20447;-49
2021/03/28 07:21:14;;;;;;;5.73;3.33;;;11.90;99.90;;;;;;5050248;28;20439;-49
2021/03/28 07:24:19;;;;;;;6.00;3.53;;;12.10;99.90;;;;;;5046906;28;20574;-49
2021/03/28 07:27:10;;;;;;;4.13;3.43;;;12.90;99.90;;;;;;5059783;28;20512;-49
2021/03/28 07:30:25;;;;;;;5.07;3.63;;;13.00;99.90;;;;;;5049856;28;20456;-49
2021/03/28 07:33:28;;;;;;;6.93;3.23;;;13.20;99.90;;;;;;5050289;28;20537;-49
2021/03/28 07:36:24;;;;;;;4.10;2.90;;;13.90;99.90;;;;;;5049255;28;20471;-49
2021/03/28 07:39:43;;;;;;;2.87;2.67;;;14.50;99.90;;;;;;5010500;28;20477;-49
2021/03/28 07:42:42;;;;;;;3.30;3.00;;;14.00;99.90;;;;;;4994137;28;20442;-49
2021/03/28 07:45:48;;;;;;;7.07;2.77;;;14.10;99.90;;;;;;4991433;28;20461;-49
2021/03/28 07:48:56;;;;;;;2.97;2.67;;;14.80;99.30;;;;;;5043657;28;20456;-49
2021/03/28 07:51:58;;;;;;;3.80;2.40;;;14.80;98.60;;;;;;5050733;28;20509;-49
2021/03/28 07:54:54;;;;;;;7.27;2.77;;;15.10;97.80;;;;;;5050240;28;20479;-49
2021/03/28 07:58:05;;;;;;;2.63;2.40;;;15.00;96.80;;;;;;5058621;28;20459;-49
2021/03/28 08:00:48;;;;;;;3.00;2.40;;;14.60;97.00;;;;;;5050205;28;20447;-49
2021/03/28 08:04:14;;;;;;;5.47;2.43;;;14.50;96.80;;;;;;5064253;28;20525;-49
2021/03/28 08:07:03;;;;;;;4.00;2.27;;;14.80;97.50;;;;;;5049071;28;20487;-49
2021/03/28 08:09:47;;;;;;;4.67;2.17;;;14.90;98.90;;;;;;5052942;28;20641;-49
2021/03/28 08:12:39;;;;;;;3.03;1.80;;;15.30;96.00;;;;;;5049986;28;20439;-49
2021/03/28 08:15:26;;;;;;;2.40;2.00;;;15.10;97.20;;;;;;5050874;28;20448;-49
2021/03/28 08:18:16;;;;;;;4.00;2.03;;;15.40;95.10;;;;;;5054463;28;20447;-49
2021/03/28 08:21:00;;;;;;;2.27;1.77;;;15.90;96.40;;;;;;5068694;28;20970;-49
2021/03/28 08:24:06;;;;;;;4.00;1.97;;;15.50;95.30;;;;;;5050310;28;20526;-49
2021/03/28 08:27:15;;;;;;;2.17;1.97;;;15.30;94.40;;;;;;5048753;28;20495;-49
2021/03/28 08:29:57;;;;;;;2.50;1.77;;;15.30;95.10;;;;;;5017434;28;20444;-48
2021/03/28 08:32:36;;;;;;;2.67;2.10;;;14.90;95.10;;;;;;5047122;28;20446;-48
2021/03/28 08:35:31;;;;;;;3.93;2.17;;;14.30;96.00;;;;;;5047472;28;20444;-48
2021/03/28 08:38:33;;;;;;;3.60;2.33;;;15.00;96.10;;;;;;5045537;28;20505;-48
2021/03/28 08:41:33;;;;;;;2.90;2.37;;;15.80;95.20;;;;;;5047997;28;20450;-49
2021/03/28 08:44:36;;;;;;;3.40;1.90;;;16.10;96.90;;;;;;5035468;28;20480;-49
2021/03/28 08:47:43;;;;;;;2.80;1.90;;;15.60;95.40;;;;;;5040437;28;20476;-49
2021/03/28 08:50:17;;;;;;;3.50;2.80;;;16.20;94.90;;;;;;5041380;28;20827;-49
2021/03/28 08:53:20;;;;;;;3.97;2.40;;;15.60;95.00;;;;;;5044581;28;20509;-49
2021/03/28 08:56:32;;;;;;;3.13;2.60;;;15.80;93.40;;;;;;5043723;28;20467;-49
2021/03/28 08:59:13;;;;;;;2.67;2.30;;;15.30;96.20;;;;;;5049566;28;20455;-49
2021/03/28 09:01:47;;;;;;;3.30;2.53;;;15.50;95.60;;;;;;5057145;28;20447;-48
2021/03/28 09:04:24;;;;;;;2.77;2.50;;;15.60;96.60;;;;;;5055905;28;20438;-49
2021/03/28 09:07:10;;;;;;;3.00;2.63;;;16.00;95.40;;;;;;5054907;28;20486;-48
2021/03/28 09:10:00;;;;;;;2.33;2.13;;;15.80;94.70;;;;;;5051974;28;20443;-48
2021/03/28 09:12:35;;;;;;;4.10;2.90;;;16.40;96.60;;;;;;5058297;28;20507;-49
2021/03/28 09:15:44;;;;;;;3.33;2.80;;;16.50;96.00;;;;;;5072048;28;20430;-48
2021/03/28 09:18:27;;;;;;;2.60;2.40;;;16.50;96.10;;;;;;5072343;28;20455;-49
2021/03/28 09:21:01;;;;;;;4.90;2.88;;;17.00;95.40;;;;;;5049588;28;20964;-49
2021/03/28 09:23:41;;;;;;;3.50;2.63;;;16.80;95.40;;;;;;5048022;28;20197;-48
2021/03/28 09:26:28;;;;;;;2.87;2.53;;;16.60;94.20;;;;;;5048282;28;20463;-48
2021/03/28 09:29:33;;;;;;;3.30;2.70;;;16.00;93.70;;;;;;5051820;28;20451;-48
2021/03/28 09:32:13;;;;;;;3.07;2.40;;;16.40;95.60;;;;;;5043317;28;20448;-48
2021/03/28 09:34:54;;;;;;;2.50;2.10;;;16.80;95.90;;;;;;5031772;28;20494;-48
2021/03/28 09:37:28;;;;;;;2.40;2.07;;;16.90;95.30;;;;;;5032338;28;20479;-48
2021/03/28 09:40:06;;;;;;;4.20;2.70;;;17.00;92.20;;;;;;5031893;28;20498;-48
2021/03/28 09:42:58;;;;;;;3.20;1.97;;;16.40;92.50;;;;;;5045311;28;20447;-48
2021/03/28 09:45:48;;;;;;;2.40;1.90;;;16.20;92.40;;;;;;5052096;28;20468;-48
2021/03/28 09:48:34;;;;;;;1.83;1.73;;;16.20;92.10;;;;;;5053445;28;20975;-48
2021/03/28 09:51:32;;;;;;;2.57;2.20;;;16.50;91.70;;;;;;5052403;28;20448;-48
2021/03/28 09:54:25;;;;;;;2.30;2.07;;;16.40;91.50;;;;;;5047445;28;20868;-49
2021/03/28 09:57:27;;;;;;;4.60;1.93;;;16.30;92.10;;;;;;5053658;28;21037;-48
2021/03/28 10:00:25;;;;;;;4.67;2.03;;;16.20;91.90;;;;;;5053764;28;20438;-49
2021/03/28 10:03:02;;;;;;;3.47;2.07;;;16.50;91.80;;;;;;5053464;28;20447;-49
2021/03/28 10:05:31;;;;;;;2.83;2.10;;;16.70;90.60;;;;;;5049780;28;20528;-48
2021/03/28 10:08:08;;;;;;;2.50;2.03;;;17.00;89.10;;;;;;5052747;28;20466;-49
2021/03/28 10:10:44;;;;;;;2.20;2.00;;;17.30;91.30;;;;;;5053278;28;20451;-49
2021/03/28 10:13:41;;;;;;;2.20;2.00;;;17.10;89.00;;;;;;5053307;28;21014;-49
2021/03/28 10:16:16;;;;;;;3.83;2.00;;;17.20;92.40;;;;;;5042348;28;20472;-49
2021/03/28 10:18:55;;;;;;;2.20;2.10;;;17.30;94.20;;;;;;5052738;28;20454;-49
2021/03/28 10:21:46;;;;;;;2.47;1.90;;;17.50;90.00;;;;;;5050683;28;20467;-49
2021/03/28 10:24:37;;;;;;;4.23;1.83;;;17.90;88.20;;;;;;5052621;28;20456;-48
2021/03/28 10:27:33;;;;;;;4.20;2.20;;;18.20;90.70;;;;;;5052753;28;20478;-49
2021/03/28 10:30:14;;;;;;;2.87;2.13;;;18.70;83.60;;;;;;5052882;28;20808;-49
2021/03/28 10:32:53;;;;;;;2.50;2.03;;;18.50;89.20;;;;;;5048813;28;20459;-49
2021/03/28 10:35:31;;;;;;;2.80;1.70;;;18.30;90.70;;;;;;5034507;28;20472;-49
2021/03/28 10:38:37;;;;;;;1.97;1.80;;;18.20;90.20;;;;;;5033172;28;20455;-49
2021/03/28 10:41:18;;;;;;;4.30;1.70;;;18.60;84.60;;;;;;5041316;28;20459;-49
2021/03/28 10:44:20;;;;;;;2.13;1.77;;;18.50;90.10;;;;;;5037383;28;20455;-49
2021/03/28 10:47:31;;;;;;;1.73;1.63;;;17.90;90.40;;;;;;5033085;28;20530;-49
2021/03/28 10:50:25;;;;;;;1.70;1.60;;;17.60;88.60;;;;;;5042412;28;20439;-49
2021/03/28 10:53:21;;;;;;;2.93;1.70;;;17.70;86.50;;;;;;5038397;28;20247;-49
2021/03/28 10:56:34;;;;;;;2.23;1.87;;;18.00;82.90;;;;;;5047704;28;20498;-49
2021/03/28 11:00:01;;;;;;;4.57;1.80;;;17.80;81.80;;;;;;5051967;28;20538;-48
2021/03/28 11:02:57;;;;;;;1.83;1.73;;;17.60;87.00;;;;;;4994416;28;20442;-49
2021/03/28 11:05:56;;;;;;;4.30;1.80;;;17.30;81.30;;;;;;4984744;28;20485;-48
2021/03/28 11:08:42;;;;;;;4.20;1.90;;;17.60;80.60;;;;;;5053584;28;20452;-48
2021/03/28 11:12:08;;;;;;;3.07;1.80;;;17.40;83.00;;;;;;5032736;28;20939;-48
2021/03/28 11:15:03;;;;;;;2.57;1.80;;;17.40;90.30;;;;;;5069432;28;20489;-48
2021/03/28 11:18:07;;;;;;;3.57;2.37;;;17.00;91.60;;;;;;5049278;28;20436;-48
2021/03/28 11:20:49;;;;;;;5.70;3.17;;;16.70;93.30;;;;;;5050361;28;20513;-48
2021/03/28 11:23:47;;;;;;;4.13;2.90;;;15.80;94.30;;;;;;5051388;28;20809;-48
2021/03/28 11:26:56;;;;;;;3.60;3.17;;;14.60;94.90;;;;;;5031210;28;20581;-47
2021/03/28 11:29:55;;;;;;;5.10;3.20;;;14.40;96.20;;;;;;5052342;28;20452;-47
2021/03/28 11:32:26;;;;;;;6.10;3.30;;;14.60;95.20;;;;;;5056349;28;20440;-48
2021/03/28 11:35:17;;;;;;;4.43;3.20;;;14.10;94.70;;;;;;5060115;28;20470;-48
2021/03/28 11:37:49;;;;;;;4.18;3.20;;;14.20;96.10;;;;;;5052286;28;20529;-48
2021/03/28 11:40:34;;;;;;;15.33;5.83;;;14.30;95.30;;;;;;5069172;28;20586;-48
2021/03/28 11:43:35;;;;;;;3.63;2.87;;;14.40;95.60;;;;;;5051160;28;20575;-47
2021/03/28 11:46:23;;;;;;;8.47;3.17;;;14.50;96.60;;;;;;5047850;28;20469;-48
2021/03/28 11:49:13;;;;;;;5.03;3.00;;;14.00;96.20;;;;;;5052705;28;20440;-48
2021/03/28 11:52:17;;;;;;;3.73;2.63;;;13.90;96.70;;;;;;5068996;28;20530;-48
2021/03/28 11:55:11;;;;;;;5.73;3.10;;;14.20;96.30;;;;;;5068870;28;21191;-48
2021/03/28 11:57:39;;;;;;;4.33;2.90;;;14.60;94.80;;;;;;5050704;28;20440;-48
2021/03/28 12:00:38;;;;;;;5.00;3.23;;;14.30;95.80;;;;;;5047959;28;20458;-47
2021/03/28 12:03:28;;;;;;;5.30;3.33;;;13.60;95.50;;;;;;5062121;28;20439;-48
2021/03/28 12:05:58;;;;;;;4.30;3.40;;;13.00;96.00;;;;;;5056816;28;20556;-49
2021/03/28 12:08:28;;;;;;;2.80;2.60;;;13.20;97.90;;;;;;5049907;28;21152;-48
2021/03/28 12:10:58;;;;;;;3.67;2.90;;;13.40;96.30;;;;;;5059541;28;20438;-48
2021/03/28 12:13:45;;;;;;;4.80;4.13;;;13.70;96.20;;;;;;5060762;28;20534;-48
2021/03/28 12:16:12;;;;;;;9.60;3.37;;;13.60;95.70;;;;;;5046897;28;20562;-49
2021/03/28 12:18:54;;;;;;;6.03;3.43;;;13.60;97.30;;;;;;5064660;22;20495;-46
2021/03/28 12:21:54;;;;;;;4.53;3.40;;;13.60;97.70;;;;;;5050209;28;20448;-46
2021/03/28 12:24:26;;;;;;;7.40;3.50;;;13.40;96.80;;;;;;5050368;28;20448;-46
2021/03/28 12:27:23;;;;;;;4.00;3.40;;;13.30;97.20;;;;;;5049788;28;20451;-47
2021/03/28 12:29:51;;;;;;;8.30;4.33;;;13.40;97.50;;;;;;5031444;28;21039;-46
2021/03/28 12:33:02;;;;;;;4.87;3.43;;;13.20;98.00;;;;;;5030524;28;20449;-46
2021/03/28 12:35:47;;;;;;;6.90;3.53;;;13.30;97.10;;;;;;5030028;28;20440;-46
2021/03/28 12:38:38;;;;;;;4.37;3.40;;;13.50;96.70;;;;;;5030526;28;20538;-46
2021/03/28 12:41:27;;;;;;;4.77;3.33;;;13.40;95.60;;;;;;5030615;28;20983;-46
2021/03/28 12:43:58;;;;;;;7.73;3.20;;;13.10;95.70;;;;;;5029867;28;20449;-46
2021/03/28 12:46:55;;;;;;;7.83;3.43;;;13.40;97.30;;;;;;5029638;28;20453;-46
2021/03/28 12:49:28;;;;;;;3.70;2.93;;;13.60;97.60;;;;;;5030662;28;20468;-47
2021/03/28 12:52:16;;;;;;;5.20;3.23;;;13.60;95.60;;;;;;5030896;28;20543;-45
2021/03/28 12:55:02;;;;;;;4.60;3.27;;;13.30;96.10;;;;;;5030161;28;20484;-46
2021/03/28 12:57:32;;;;;;;4.97;3.47;;;13.30;95.50;;;;;;5028766;28;20448;-46
2021/03/28 13:00:00;;;;;;;5.10;3.30;;;13.50;96.00;;;;;;5031066;28;20519;-46
2021/03/28 13:02:31;;;;;;;3.57;3.20;;;13.80;95.70;;;;;;5030595;28;20460;-46
2021/03/28 13:05:01;;;;;;;3.70;2.67;;;14.00;95.50;;;;;;5029864;28;20525;-46
2021/03/28 13:07:40;;;;;;;5.30;3.17;;;13.80;94.50;;;;;;5027981;28;20445;-46
2021/03/28 13:10:16;;;;;;;6.50;3.80;;;13.50;95.50;;;;;;5030798;28;20432;-46
2021/03/28 13:12:44;;;;;;;4.27;3.40;;;13.60;97.00;;;;;;5031571;28;20490;-46
2021/03/28 13:15:25;;;;;;;5.43;3.40;;;13.70;97.00;;;;;;5048871;28;20480;-46
2021/03/28 13:18:25;;;;;;;4.00;3.60;;;13.90;96.80;;;;;;5028485;28;20447;-47
2021/03/28 13:20:55;;;;;;;7.00;3.23;;;14.00;97.00;;;;;;5030817;28;20444;-46
2021/03/28 13:23:29;;;;;;;5.03;2.97;;;14.00;95.80;;;;;;5026713;28;20509;-47
2021/03/28 13:26:22;;;;;;;4.77;3.40;;;14.40;97.60;;;;;;5025047;28;20572;-46
2021/03/28 13:29:16;;;;;;;5.10;3.47;;;14.50;95.30;;;;;;5015380;28;20982;-46
2021/03/28 13:31:53;;;;;;;4.13;3.40;;;14.80;94.20;;;;;;5025381;28;20531;-47
2021/03/28 13:34:39;;;;;;;4.80;3.43;;;14.90;93.50;;;;;;5039077;28;20483;-45
2021/03/28 13:37:16;;;;;;;4.83;3.27;;;14.80;94.20;;;;;;5030858;28;20441;-46
2021/03/28 13:39:57;;;;;;;6.30;3.63;;;14.80;94.80;;;;;;5029206;28;20896;-46
2021/03/28 13:42:29;;;;;;;3.77;3.33;;;14.80;93.50;;;;;;5027189;28;20449;-46
2021/03/28 13:44:59;;;;;;;3.00;2.70;;;14.80;93.80;;;;;;5029407;28;20441;-46
2021/03/28 13:47:41;;;;;;;5.10;3.60;;;14.80;92.90;;;;;;5029285;28;20447;-45
2021/03/28 13:50:44;;;;;;;4.17;3.30;;;14.80;93.10;;;;;;5029652;28;20433;-46
2021/03/28 13:53:40;;;;;;;5.23;3.77;;;15.00;93.00;;;;;;5028989;28;20452;-46
2021/03/28 13:56:34;;;;;;;4.43;3.53;;;15.30;93.40;;;;;;5025910;28;20478;-45
2021/03/28 13:59:06;;;;;;;7.50;3.07;;;14.70;93.20;;;;;;5025745;28;20472;-46
2021/03/28 14:01:44;;;;;;;8.17;3.30;;;14.70;93.40;;;;;;5029680;28;20471;-45
2021/03/28 14:04:22;;;;;;;5.70;3.70;;;14.90;93.80;;;;;;5032838;28;20960;-46
2021/03/28 14:07:07;;;;;;;4.90;3.20;;;15.20;93.10;;;;;;5032737;28;20815;-46
2021/03/28 14:09:38;;;;;;;7.17;3.70;;;15.00;94.70;;;;;;5032706;28;20782;-46
2021/03/28 14:12:17;;;;;;;6.10;4.10;;;14.60;93.80;;;;;;5036778;28;20448;-45
2021/03/28 14:14:45;;;;;;;4.47;3.63;;;14.50;94.10;;;;;;5032537;28;20484;-46
2021/03/28 14:17:21;;;;;;;5.00;3.30;;;14.60;94.00;;;;;;5034516;28;20511;-46
2021/03/28 14:19:48;;;;;;;5.27;4.10;;;14.50;94.00;;;;;;5036417;28;20550;-46
2021/03/28 14:22:24;;;;;;;4.37;3.20;;;14.80;93.50;;;;;;5037182;28;20456;-45
2021/03/28 14:24:55;;;;;;;7.60;3.40;;;14.90;93.10;;;;;;5050766;28;20901;-46
2021/03/28 14:27:28;;;;;;;6.30;4.27;;;14.70;92.40;;;;;;5050987;28;20509;-46
2021/03/28 14:30:04;;;;;;;6.70;3.70;;;14.70;93.00;;;;;;5050891;28;20478;-46
2021/03/28 14:32:37;;;;;;;3.57;3.20;;;14.40;94.00;;;;;;5036997;28;20833;-46
2021/03/28 14:35:18;;;;;;;4.13;2.90;;;14.40;93.90;;;;;;5032817;28;20487;-45
2021/03/28 14:38:22;;;;;;;3.70;3.10;;;14.80;93.50;;;;;;5033115;28;20445;-46
2021/03/28 14:40:55;;;;;;;4.00;3.00;;;14.30;93.70;;;;;;5030867;28;20441;-46
2021/03/28 14:43:48;;;;;;;4.17;3.00;;;14.50;93.00;;;;;;5013224;28;20893;-46
2021/03/28 14:46:43;;;;;;;4.50;2.90;;;14.80;92.30;;;;;;5013058;28;20799;-46
2021/03/28 14:49:19;;;;;;;3.47;2.80;;;14.70;92.90;;;;;;5012919;28;20472;-46
2021/03/28 14:52:06;;;;;;;4.80;2.90;;;14.50;93.00;;;;;;5022489;28;20444;-46